»·PEaware :: ACA568 CYVR-KSFO

ACA568 :: CYVR-KSFO

FLIGHT INFORMATION

Flight Status: Arrived
Operator:
Air Canada
More flights by this operator :: More flights under this callsign
Pilot: Jamyson D. (13674)
Aircraft: AIRBUS A320
(A320)
More flights by this aircraft type
Origin: CYVR Vancouver Intl
Canada
Destination: KSFO San Francisco Intl
United States
More flights between these airports :: More routes between these airports
Route: YYJ J589 ELMAA Q1 ETCHY MLBEC BDEGA3
File this flight plan on PilotEdge
Remarks:
Altitude:
(Current/Filed)
31,000ft
Speed:
(Current/Filed)
407kts
Departed: 01-Jan-20 08:06 PM
Arrived: 01-Jan-20 09:49 PM
Distance/Time
Traveled:
695nm/1:43
Distance/Time
To Go:
Arrived

Flight Plot

Page will automatically refresh every two minutes.

Flight plan parsing failed; only flown route is shown


Map Options




Map Legend


Flown Route
Filed Route
Departure Airport
Arrival Airport
Navaid (VOR, NDB)
Fix

Horizontal Profiles

Position Reports

Time Latitude Longitude Heading Altitude Ground
Speed
01-Jan-20 19:43 49.195674 -123.182459 222 19ft 0kts
01-Jan-20 19:44 49.195674 -123.182459 222 19ft 0kts
01-Jan-20 19:45 49.195674 -123.182459 222 19ft 0kts
01-Jan-20 19:46 49.195674 -123.182459 222 19ft 0kts
01-Jan-20 19:47 49.195674 -123.182459 222 19ft 0kts
01-Jan-20 19:48 49.195674 -123.182459 222 19ft 0kts
01-Jan-20 19:49 49.195674 -123.182459 222 19ft 0kts
01-Jan-20 19:50 49.195674 -123.182459 222 19ft 0kts
01-Jan-20 19:51 49.195674 -123.182459 222 19ft 0kts
01-Jan-20 19:52 49.195674 -123.182459 222 19ft 0kts
01-Jan-20 19:53 49.195674 -123.182459 222 19ft 0kts
01-Jan-20 19:54 49.195887 -123.182166 222 19ft 2kts
01-Jan-20 19:55 49.196327 -123.181561 222 19ft 2kts
01-Jan-20 19:56 49.196520 -123.181874 313 19ft 2kts
01-Jan-20 19:57 49.196546 -123.181917 313 19ft 0kts
01-Jan-20 19:58 49.196546 -123.181917 313 19ft 0kts
01-Jan-20 19:59 49.197021 -123.184666 280 16ft 21kts
01-Jan-20 20:00 49.193400 -123.186954 189 16ft 17kts
01-Jan-20 20:01 49.189493 -123.183826 103 19ft 25kts
01-Jan-20 20:02 49.188121 -123.171860 100 16ft 24kts
01-Jan-20 20:03 49.186442 -123.161988 119 16ft 21kts
01-Jan-20 20:04 49.184988 -123.163006 280 16ft 20kts
01-Jan-20 20:05 49.191511 -123.217886 280 1547ft 174kts
01-Jan-20 20:06 49.193682 -123.297483 249 3780ft 230kts
01-Jan-20 20:07 49.133109 -123.343927 196 6451ft 271kts
01-Jan-20 20:08 49.058404 -123.369560 197 9356ft 284kts
01-Jan-20 20:09 48.977190 -123.397977 198 11217ft 329kts
01-Jan-20 20:10 48.885535 -123.429831 200 13252ft 351kts
01-Jan-20 20:11 48.789827 -123.462977 203 15163ft 369kts
01-Jan-20 20:12 48.685563 -123.483010 189 16050ft 394kts
01-Jan-20 20:13 48.574317 -123.477738 190 17259ft 409kts
01-Jan-20 20:14 48.459615 -123.472563 191 18838ft 424kts
01-Jan-20 20:15 48.339673 -123.467182 191 20297ft 439kts
01-Jan-20 20:16 48.215726 -123.461573 191 21634ft 453kts
01-Jan-20 20:17 48.089021 -123.455240 191 22890ft 466kts
01-Jan-20 20:18 47.957962 -123.448792 191 24011ft 480kts
01-Jan-20 20:19 47.823826 -123.442161 191 25093ft 491kts
01-Jan-20 20:20 47.687029 -123.435433 191 26041ft 501kts
01-Jan-20 20:21 47.547230 -123.428658 192 27031ft 508kts
01-Jan-20 20:22 47.405592 -123.421867 192 27907ft 517kts
01-Jan-20 20:23 47.261339 -123.414971 193 28752ft 524kts
01-Jan-20 20:24 47.115938 -123.408229 194 29882ft 522kts
01-Jan-20 20:25 46.972391 -123.403675 194 30978ft 521kts
01-Jan-20 20:26 46.831281 -123.399138 194 31040ft 517kts
01-Jan-20 20:27 46.689796 -123.394742 194 31102ft 517kts
01-Jan-20 20:28 46.547785 -123.391055 194 31099ft 517kts
01-Jan-20 20:29 46.405727 -123.385963 194 31099ft 516kts
01-Jan-20 20:30 46.262515 -123.381493 194 31136ft 516kts
01-Jan-20 20:31 46.119494 -123.377096 194 31151ft 516kts
01-Jan-20 20:32 45.975891 -123.372713 194 31154ft 516kts
01-Jan-20 20:34 45.835326 -123.368433 194 31145ft 516kts
01-Jan-20 20:35 45.692178 -123.364106 194 31134ft 515kts
01-Jan-20 20:36 45.548787 -123.359813 193 31132ft 517kts
01-Jan-20 20:37 45.406086 -123.355543 193 31164ft 518kts
01-Jan-20 20:38 45.261509 -123.351235 193 31173ft 520kts
01-Jan-20 20:39 45.118001 -123.346976 193 31195ft 521kts
01-Jan-20 20:40 44.974634 -123.342736 192 31255ft 520kts
01-Jan-20 20:41 44.832419 -123.338556 192 31231ft 519kts
01-Jan-20 20:42 44.688867 -123.334363 192 31214ft 517kts
01-Jan-20 20:43 44.547494 -123.330264 192 31221ft 517kts
01-Jan-20 20:44 44.406067 -123.325178 191 31236ft 517kts
01-Jan-20 20:45 44.262392 -123.319355 191 31250ft 517kts
01-Jan-20 20:46 44.119797 -123.313666 191 31253ft 517kts
01-Jan-20 20:47 43.979750 -123.308111 190 31250ft 517kts
01-Jan-20 20:48 43.839141 -123.302547 190 31236ft 516kts
01-Jan-20 20:49 43.695399 -123.296900 190 31229ft 517kts
01-Jan-20 20:50 43.551489 -123.291277 190 31253ft 518kts
01-Jan-20 20:51 43.408365 -123.285710 189 31273ft 519kts
01-Jan-20 20:52 43.265527 -123.280206 189 31266ft 521kts
01-Jan-20 20:52 43.145542 -123.275553 189 31277ft 521kts
01-Jan-20 20:54 42.977015 -123.269072 189 31252ft 522kts
01-Jan-20 20:55 42.833595 -123.263575 189 31250ft 520kts
01-Jan-20 20:55 42.713864 -123.259017 189 31223ft 519kts
01-Jan-20 20:57 42.545885 -123.252666 188 31283ft 519kts
01-Jan-20 20:57 42.425592 -123.248161 188 31297ft 520kts
01-Jan-20 20:58 42.281901 -123.242858 189 31322ft 519kts
01-Jan-20 21:00 42.114290 -123.236702 188 31307ft 518kts
01-Jan-20 21:00 41.995387 -123.232362 188 31284ft 519kts
01-Jan-20 21:01 41.855445 -123.227249 188 31288ft 518kts
01-Jan-20 21:02 41.715113 -123.222149 188 31275ft 517kts
01-Jan-20 21:03 41.573052 -123.217073 188 31275ft 517kts
01-Jan-20 21:04 41.431953 -123.212211 188 31278ft 518kts
01-Jan-20 21:05 41.288215 -123.207572 188 31246ft 518kts
01-Jan-20 21:06 41.144519 -123.204038 188 31249ft 519kts
01-Jan-20 21:07 41.000775 -123.200413 188 31226ft 519kts
01-Jan-20 21:08 40.863746 -123.196964 187 31254ft 518kts
01-Jan-20 21:09 40.723204 -123.193441 187 31222ft 518kts
01-Jan-20 21:10 40.582419 -123.189934 187 31224ft 518kts
01-Jan-20 21:11 40.439938 -123.186399 187 31237ft 518kts
01-Jan-20 21:12 40.297335 -123.182872 187 31246ft 519kts
01-Jan-20 21:13 40.153965 -123.179343 187 31244ft 519kts
01-Jan-20 21:14 40.011345 -123.175845 187 31242ft 519kts
01-Jan-20 21:15 39.871833 -123.170673 185 31230ft 520kts
01-Jan-20 21:16 39.731045 -123.164004 185 31219ft 519kts
01-Jan-20 21:17 39.587916 -123.157409 185 31205ft 519kts
01-Jan-20 21:18 39.445189 -123.150860 185 31200ft 519kts
01-Jan-20 21:19 39.301755 -123.144308 185 31208ft 520kts
01-Jan-20 21:20 39.158864 -123.137803 185 31220ft 521kts
01-Jan-20 21:21 39.021284 -123.078862 148 31229ft 546kts
01-Jan-20 21:22 38.897144 -122.977529 152 31211ft 544kts
01-Jan-20 21:23 38.756381 -122.923815 172 31177ft 532kts
01-Jan-20 21:24 38.617325 -122.882718 172 30442ft 509kts
01-Jan-20 21:25 38.482395 -122.842966 172 27570ft 492kts
01-Jan-20 21:26 38.351500 -122.804558 172 25745ft 477kts
01-Jan-20 21:27 38.225335 -122.767609 172 23372ft 454kts
01-Jan-20 21:28 38.104136 -122.732406 171 21262ft 441kts
01-Jan-20 21:29 37.986285 -122.698269 170 19507ft 429kts
01-Jan-20 21:30 37.877637 -122.651334 139 17797ft 417kts
01-Jan-20 21:31 37.791897 -122.559398 138 14979ft 390kts
01-Jan-20 21:32 37.712307 -122.474910 138 12807ft 351kts
01-Jan-20 21:33 37.640475 -122.398467 138 11066ft 328kts
01-Jan-20 21:34 37.567378 -122.329954 153 10956ft 327kts
01-Jan-20 21:35 37.487185 -122.281202 154 9730ft 315kts
01-Jan-20 21:36 37.409284 -122.236283 154 8513ft 303kts
01-Jan-20 21:37 37.333508 -122.192799 154 7213ft 297kts
01-Jan-20 21:38 37.313128 -122.117724 43 6855ft 240kts
01-Jan-20 21:39 37.372420 -122.089174 14 5614ft 231kts
01-Jan-20 21:40 37.433639 -122.066914 14 4490ft 227kts
01-Jan-20 21:41 37.488417 -122.075110 318 4022ft 209kts
01-Jan-20 21:42 37.519223 -122.137504 299 3814ft 209kts
01-Jan-20 21:43 37.544925 -122.198967 299 2837ft 190kts
01-Jan-20 21:44 37.567469 -122.252614 300 1931ft 151kts
01-Jan-20 21:45 37.585604 -122.295940 295 1170ft 134kts
01-Jan-20 21:46 37.602112 -122.335507 295 478ft 128kts
01-Jan-20 21:47 37.617627 -122.372545 297 21ft 73kts
01-Jan-20 21:48 37.619484 -122.381595 299 21ft 16kts
01-Jan-20 21:49 37.621403 -122.386222 295 21ft 13kts
01-Jan-20 21:50 37.622437 -122.390290 252 21ft 11kts
01-Jan-20 21:51 37.620479 -122.392226 206 21ft 8kts
01-Jan-20 21:52 37.619225 -122.391149 118 21ft 7kts
01-Jan-20 21:53 37.618212 -122.389210 211 21ft 3kts
01-Jan-20 21:54 37.617677 -122.389622 207 21ft 0kts
01-Jan-20 21:55 37.617677 -122.389622 207 21ft 0kts

Navigation Log

Ident Type
Flight plan parsing failed, navigation log unavailable